Wellington International Airport
NZWN : now visible

Airfield :











YOU CAN JOIN US ON...

 
LOGIN :

Register | Disclaimer

   EN    FR    IT 

 









Legend :    VFR   Marginal VFR   IFR   Intensive IFR   Very Intensive IFR
Visi :
Ceiling :
>= 8 km
>= 3000ft
5 to 8 km
1000 to 3000 ft
1500m to 5 km
500 to 1000 ft
800 to 1500m
200 to 500 ft
< 800m
< 200 ft
Symbols :   Thunderstorms  Fog  Heavy snow  Heavy precipitations  Wind > 20 kt






- Airport Elevation : 41 ft
- IATA code : WLG


NZWN - Wellington International

CURRENT METAR :
  • 032000Z AUTO 09004KT 350V200 9999 NCD 08/07 Q1027 BECMG 18015KT

EXPIRED METARs :
  • 031930Z AUTO 08003KT 9999 NCD 06/05 Q1026 BECMG TL2000 18015KT
  • 031900Z AUTO 22002KT 9999 NCD 09/07 Q1026 BECMG TL2000 18015KT
  • 031830Z AUTO 03004KT 360V090 9999 NCD 07/05 Q1025 BECMG TL2000 18015KT
  • 030500Z AUTO 02009KT 9999 NCD 12/08 Q1019 NOSIG
  • 031800Z AUTO 02004KT 9999 NCD 07/06 Q1024 NOSIG
  • 031730Z AUTO 01004KT 330V060 9999 NCD 07/06 Q1024 NOSIG

TAF COR TAF NZWN
Valid from the 03 at 18:00 until the 04 at 18:00 UTC


031819Z 0318/0418 34005KT 9999 FEW020
BECMG 0318/0320 18015KT
BECMG 0322/0400 02010KT
BECMG 0407/0409 34015G25KT
NZZC FIR / Oceania



MET'MAP, your aeronautical weather chart ! - Copyright ORBIFLY December 2007 - Disclaimer

ORBIFLY MET'MAP TEAM :

Programming & Development : Alexandra Zaïnal
Original concept : Baudouin d'Aumeries
Technical & hardware support : Manuel Goepfert
Assistance : Marc-Olivier Méhu




SOURCES & CREDITS :

   NOAA       Earth
Advisory